sensor_id;sensor_type;location;lat;lon;timestamp;P1;durP1;ratioP1;P2;durP2;ratioP2
27558;SDS011;15002;52.028;5.670;2022-09-01T00:01:11;1.35;;;1.25;;
27558;SDS011;15002;52.028;5.670;2022-09-01T00:03:45;1.73;;;1.27;;
27558;SDS011;15002;52.028;5.670;2022-09-01T00:06:17;1.90;;;1.33;;
27558;SDS011;15002;52.028;5.670;2022-09-01T00:08:50;3.30;;;1.30;;
27558;SDS011;15002;52.028;5.670;2022-09-01T00:11:17;4.07;;;1.70;;
27558;SDS011;15002;52.028;5.670;2022-09-01T00:13:43;2.65;;;1.35;;
27558;SDS011;15002;52.028;5.670;2022-09-01T00:16:08;3.45;;;1.60;;
27558;SDS011;15002;52.028;5.670;2022-09-01T00:18:38;3.47;;;1.67;;
27558;SDS011;15002;52.028;5.670;2022-09-01T00:21:08;3.80;;;1.70;;
27558;SDS011;15002;52.028;5.670;2022-09-01T00:23:35;3.13;;;1.60;;
27558;SDS011;15002;52.028;5.670;2022-09-01T00:26:01;3.30;;;1.50;;
27558;SDS011;15002;52.028;5.670;2022-09-01T00:28:27;2.38;;;1.88;;
27558;SDS011;15002;52.028;5.670;2022-09-01T00:30:52;2.30;;;1.50;;
27558;SDS011;15002;52.028;5.670;2022-09-01T00:33:18;3.20;;;1.58;;
27558;SDS011;15002;52.028;5.670;2022-09-01T00:35:44;3.40;;;1.77;;
27558;SDS011;15002;52.028;5.670;2022-09-01T00:38:09;2.70;;;1.45;;
27558;SDS011;15002;52.028;5.670;2022-09-01T00:40:35;1.60;;;1.50;;
27558;SDS011;15002;52.028;5.670;2022-09-01T00:44:04;4.63;;;1.80;;
27558;SDS011;15002;52.028;5.670;2022-09-01T00:46:04;2.15;;;1.70;;
27558;SDS011;15002;52.028;5.670;2022-09-01T00:48:32;1.83;;;1.50;;
27558;SDS011;15002;52.028;5.670;2022-09-01T00:50:59;3.25;;;1.70;;
27558;SDS011;15002;52.028;5.670;2022-09-01T00:53:25;3.42;;;1.55;;
27558;SDS011;15002;52.028;5.670;2022-09-01T00:55:51;4.85;;;1.70;;
27558;SDS011;15002;52.028;5.670;2022-09-01T00:58:17;2.28;;;1.70;;
27558;SDS011;15002;52.028;5.670;2022-09-01T01:00:43;4.82;;;1.52;;
27558;SDS011;15002;52.028;5.670;2022-09-01T01:03:11;2.63;;;1.67;;
27558;SDS011;15002;52.028;5.670;2022-09-01T01:05:39;2.85;;;1.40;;
27558;SDS011;15002;52.028;5.670;2022-09-01T01:08:10;5.20;;;1.70;;
27558;SDS011;15002;52.028;5.670;2022-09-01T01:10:38;3.25;;;2.00;;
27558;SDS011;15002;52.028;5.670;2022-09-01T01:13:08;2.25;;;1.60;;
27558;SDS011;15002;52.028;5.670;2022-09-01T01:15:37;2.40;;;1.73;;
27558;SDS011;15002;52.028;5.670;2022-09-01T01:18:03;3.50;;;1.60;;
27558;SDS011;15002;52.028;5.670;2022-09-01T01:20:30;5.22;;;1.70;;
27558;SDS011;15002;52.028;5.670;2022-09-01T01:25:49;2.80;;;1.77;;
27558;SDS011;15002;52.028;5.670;2022-09-01T01:28:25;3.63;;;1.95;;
27558;SDS011;15002;52.028;5.670;2022-09-01T01:31:01;3.78;;;2.00;;
27558;SDS011;15002;52.028;5.670;2022-09-01T01:33:31;2.50;;;2.30;;
27558;SDS011;15002;52.028;5.670;2022-09-01T01:36:04;2.08;;;1.75;;
27558;SDS011;15002;52.028;5.670;2022-09-01T01:38:32;2.38;;;1.80;;
27558;SDS011;15002;52.028;5.670;2022-09-01T01:40:59;4.15;;;2.03;;
27558;SDS011;15002;52.028;5.670;2022-09-01T01:43:26;4.90;;;1.75;;
27558;SDS011;15002;52.028;5.670;2022-09-01T01:45:53;5.68;;;2.00;;
27558;SDS011;15002;52.028;5.670;2022-09-01T01:48:21;4.40;;;2.17;;
27558;SDS011;15002;52.028;5.670;2022-09-01T01:50:49;5.85;;;2.17;;
27558;SDS011;15002;52.028;5.670;2022-09-01T01:53:16;2.03;;;1.73;;
27558;SDS011;15002;52.028;5.670;2022-09-01T01:55:43;2.40;;;1.85;;
27558;SDS011;15002;52.028;5.670;2022-09-01T01:58:10;4.50;;;2.03;;
27558;SDS011;15002;52.028;5.670;2022-09-01T02:00:36;3.67;;;2.05;;
27558;SDS011;15002;52.028;5.670;2022-09-01T02:03:02;4.75;;;1.92;;
27558;SDS011;15002;52.028;5.670;2022-09-01T02:05:34;5.07;;;2.08;;
27558;SDS011;15002;52.028;5.670;2022-09-01T02:08:01;4.45;;;2.20;;
27558;SDS011;15002;52.028;5.670;2022-09-01T02:10:30;2.92;;;1.92;;
27558;SDS011;15002;52.028;5.670;2022-09-01T02:12:59;2.33;;;2.00;;
27558;SDS011;15002;52.028;5.670;2022-09-01T02:15:38;3.63;;;2.08;;
27558;SDS011;15002;52.028;5.670;2022-09-01T02:18:10;3.85;;;1.80;;
27558;SDS011;15002;52.028;5.670;2022-09-01T02:20:47;3.70;;;2.13;;
27558;SDS011;15002;52.028;5.670;2022-09-01T02:23:14;2.45;;;2.00;;
27558;SDS011;15002;52.028;5.670;2022-09-01T02:25:42;4.50;;;1.80;;
27558;SDS011;15002;52.028;5.670;2022-09-01T02:28:13;5.13;;;2.17;;
27558;SDS011;15002;52.028;5.670;2022-09-01T02:30:45;2.22;;;1.98;;
27558;SDS011;15002;52.028;5.670;2022-09-01T02:33:16;3.75;;;1.70;;
27558;SDS011;15002;52.028;5.670;2022-09-01T02:35:46;3.15;;;2.17;;
27558;SDS011;15002;52.028;5.670;2022-09-01T02:38:18;4.00;;;1.90;;
27558;SDS011;15002;52.028;5.670;2022-09-01T02:40:45;3.97;;;2.10;;
27558;SDS011;15002;52.028;5.670;2022-09-01T02:43:12;4.20;;;2.30;;
27558;SDS011;15002;52.028;5.670;2022-09-01T02:45:43;2.92;;;2.15;;
27558;SDS011;15002;52.028;5.670;2022-09-01T02:48:11;2.72;;;2.13;;
27558;SDS011;15002;52.028;5.670;2022-09-01T02:50:37;3.63;;;2.40;;
27558;SDS011;15002;52.028;5.670;2022-09-01T02:53:04;3.97;;;2.40;;
27558;SDS011;15002;52.028;5.670;2022-09-01T02:55:38;4.50;;;1.90;;
27558;SDS011;15002;52.028;5.670;2022-09-01T02:58:04;3.75;;;2.03;;
27558;SDS011;15002;52.028;5.670;2022-09-01T03:00:34;3.03;;;2.38;;
27558;SDS011;15002;52.028;5.670;2022-09-01T03:03:03;4.38;;;2.25;;
27558;SDS011;15002;52.028;5.670;2022-09-01T03:05:31;3.92;;;2.13;;
27558;SDS011;15002;52.028;5.670;2022-09-01T03:07:59;4.28;;;2.05;;
27558;SDS011;15002;52.028;5.670;2022-09-01T03:10:29;2.22;;;2.03;;
27558;SDS011;15002;52.028;5.670;2022-09-01T03:13:01;2.72;;;2.10;;
27558;SDS011;15002;52.028;5.670;2022-09-01T03:15:29;2.92;;;2.20;;
27558;SDS011;15002;52.028;5.670;2022-09-01T03:17:55;5.05;;;1.65;;
27558;SDS011;15002;52.028;5.670;2022-09-01T03:20:23;2.17;;;1.83;;
27558;SDS011;15002;52.028;5.670;2022-09-01T03:22:48;5.30;;;2.30;;
27558;SDS011;15002;52.028;5.670;2022-09-01T03:25:17;5.63;;;2.03;;
27558;SDS011;15002;52.028;5.670;2022-09-01T03:27:43;3.13;;;2.00;;
27558;SDS011;15002;52.028;5.670;2022-09-01T03:30:09;2.35;;;2.15;;
27558;SDS011;15002;52.028;5.670;2022-09-01T03:32:36;3.17;;;2.22;;
27558;SDS011;15002;52.028;5.670;2022-09-01T03:35:02;2.58;;;2.00;;
27558;SDS011;15002;52.028;5.670;2022-09-01T03:37:28;4.97;;;1.85;;
27558;SDS011;15002;52.028;5.670;2022-09-01T03:39:54;2.83;;;2.22;;
27558;SDS011;15002;52.028;5.670;2022-09-01T03:42:21;2.60;;;2.13;;
27558;SDS011;15002;52.028;5.670;2022-09-01T03:44:46;3.92;;;2.22;;
27558;SDS011;15002;52.028;5.670;2022-09-01T03:47:13;4.13;;;2.17;;
27558;SDS011;15002;52.028;5.670;2022-09-01T03:49:41;3.47;;;2.17;;
27558;SDS011;15002;52.028;5.670;2022-09-01T03:52:08;4.03;;;1.92;;
27558;SDS011;15002;52.028;5.670;2022-09-01T03:54:36;3.25;;;2.00;;
27558;SDS011;15002;52.028;5.670;2022-09-01T03:57:02;4.78;;;1.85;;
27558;SDS011;15002;52.028;5.670;2022-09-01T03:59:30;3.65;;;2.20;;
27558;SDS011;15002;52.028;5.670;2022-09-01T04:01:57;3.00;;;1.90;;
27558;SDS011;15002;52.028;5.670;2022-09-01T04:04:24;3.45;;;2.10;;
27558;SDS011;15002;52.028;5.670;2022-09-01T04:06:50;2.53;;;2.00;;
27558;SDS011;15002;52.028;5.670;2022-09-01T04:09:16;2.20;;;2.00;;
27558;SDS011;15002;52.028;5.670;2022-09-01T04:11:42;5.95;;;1.85;;
27558;SDS011;15002;52.028;5.670;2022-09-01T04:14:10;3.75;;;1.92;;
27558;SDS011;15002;52.028;5.670;2022-09-01T04:16:36;4.25;;;1.85;;
27558;SDS011;15002;52.028;5.670;2022-09-01T04:19:22;2.95;;;2.00;;
27558;SDS011;15002;52.028;5.670;2022-09-01T04:21:50;2.67;;;1.88;;
27558;SDS011;15002;52.028;5.670;2022-09-01T04:24:20;4.55;;;2.00;;
27558;SDS011;15002;52.028;5.670;2022-09-01T04:26:48;4.47;;;2.15;;
27558;SDS011;15002;52.028;5.670;2022-09-01T04:29:16;5.22;;;2.30;;
27558;SDS011;15002;52.028;5.670;2022-09-01T04:31:43;2.65;;;1.98;;
27558;SDS011;15002;52.028;5.670;2022-09-01T04:34:15;4.63;;;1.70;;
27558;SDS011;15002;52.028;5.670;2022-09-01T04:36:42;4.80;;;1.80;;
27558;SDS011;15002;52.028;5.670;2022-09-01T04:39:10;6.88;;;2.10;;
27558;SDS011;15002;52.028;5.670;2022-09-01T04:41:39;5.82;;;2.10;;
27558;SDS011;15002;52.028;5.670;2022-09-01T04:44:06;4.95;;;2.05;;
27558;SDS011;15002;52.028;5.670;2022-09-01T04:46:37;3.40;;;1.75;;
27558;SDS011;15002;52.028;5.670;2022-09-01T04:49:06;4.65;;;2.15;;
27558;SDS011;15002;52.028;5.670;2022-09-01T04:51:38;3.58;;;2.22;;
27558;SDS011;15002;52.028;5.670;2022-09-01T04:54:06;3.90;;;2.03;;
27558;SDS011;15002;52.028;5.670;2022-09-01T04:56:35;3.80;;;2.00;;
27558;SDS011;15002;52.028;5.670;2022-09-01T04:59:01;5.85;;;2.08;;
27558;SDS011;15002;52.028;5.670;2022-09-01T05:01:31;5.07;;;1.80;;
27558;SDS011;15002;52.028;5.670;2022-09-01T05:04:07;7.80;;;2.00;;
27558;SDS011;15002;52.028;5.670;2022-09-01T05:06:39;6.93;;;1.88;;
27558;SDS011;15002;52.028;5.670;2022-09-01T05:09:07;5.55;;;2.13;;
27558;SDS011;15002;52.028;5.670;2022-09-01T05:11:35;5.25;;;1.75;;
27558;SDS011;15002;52.028;5.670;2022-09-01T05:14:01;6.80;;;1.77;;
27558;SDS011;15002;52.028;5.670;2022-09-01T05:16:29;8.65;;;2.35;;
27558;SDS011;15002;52.028;5.670;2022-09-01T05:18:55;6.68;;;2.22;;
27558;SDS011;15002;52.028;5.670;2022-09-01T05:21:22;8.35;;;2.42;;
27558;SDS011;15002;52.028;5.670;2022-09-01T05:23:50;6.97;;;2.40;;
27558;SDS011;15002;52.028;5.670;2022-09-01T05:26:17;6.40;;;2.25;;
27558;SDS011;15002;52.028;5.670;2022-09-01T05:28:48;13.18;;;2.50;;
27558;SDS011;15002;52.028;5.670;2022-09-01T05:31:18;8.88;;;2.92;;
27558;SDS011;15002;52.028;5.670;2022-09-01T05:33:47;12.50;;;2.10;;
27558;SDS011;15002;52.028;5.670;2022-09-01T05:36:15;13.45;;;2.50;;
27558;SDS011;15002;52.028;5.670;2022-09-01T05:38:43;8.82;;;1.92;;
27558;SDS011;15002;52.028;5.670;2022-09-01T05:41:10;6.03;;;2.28;;
27558;SDS011;15002;52.028;5.670;2022-09-01T05:43:39;4.32;;;2.30;;
27558;SDS011;15002;52.028;5.670;2022-09-01T05:46:10;3.15;;;1.70;;
27558;SDS011;15002;52.028;5.670;2022-09-01T05:48:40;1.90;;;1.75;;
27558;SDS011;15002;52.028;5.670;2022-09-01T05:51:06;2.42;;;1.90;;
27558;SDS011;15002;52.028;5.670;2022-09-01T05:53:32;3.40;;;2.00;;
27558;SDS011;15002;52.028;5.670;2022-09-01T05:55:58;4.18;;;2.10;;
27558;SDS011;15002;52.028;5.670;2022-09-01T05:58:30;4.13;;;2.30;;
27558;SDS011;15002;52.028;5.670;2022-09-01T06:00:58;2.55;;;1.92;;
27558;SDS011;15002;52.028;5.670;2022-09-01T06:03:24;5.28;;;2.50;;
27558;SDS011;15002;52.028;5.670;2022-09-01T06:05:52;1.90;;;1.60;;
27558;SDS011;15002;52.028;5.670;2022-09-01T06:08:25;3.30;;;1.60;;
27558;SDS011;15002;52.028;5.670;2022-09-01T06:10:53;5.93;;;2.00;;
27558;SDS011;15002;52.028;5.670;2022-09-01T06:13:19;6.00;;;1.77;;
27558;SDS011;15002;52.028;5.670;2022-09-01T06:15:48;5.30;;;1.70;;
27558;SDS011;15002;52.028;5.670;2022-09-01T06:18:17;7.05;;;2.13;;
27558;SDS011;15002;52.028;5.670;2022-09-01T06:20:45;5.95;;;1.70;;
27558;SDS011;15002;52.028;5.670;2022-09-01T06:23:13;5.85;;;2.00;;
27558;SDS011;15002;52.028;5.670;2022-09-01T06:25:41;3.92;;;1.60;;
27558;SDS011;15002;52.028;5.670;2022-09-01T06:28:10;5.13;;;1.77;;
27558;SDS011;15002;52.028;5.670;2022-09-01T06:30:40;3.55;;;1.50;;
27558;SDS011;15002;52.028;5.670;2022-09-01T06:33:09;2.83;;;1.48;;
27558;SDS011;15002;52.028;5.670;2022-09-01T06:35:38;6.55;;;2.47;;
27558;SDS011;15002;52.028;5.670;2022-09-01T06:38:06;3.55;;;1.20;;
27558;SDS011;15002;52.028;5.670;2022-09-01T06:40:33;3.30;;;1.63;;
27558;SDS011;15002;52.028;5.670;2022-09-01T06:43:00;2.33;;;1.50;;
27558;SDS011;15002;52.028;5.670;2022-09-01T06:45:32;3.80;;;1.50;;
27558;SDS011;15002;52.028;5.670;2022-09-01T06:48:08;7.22;;;1.70;;
27558;SDS011;15002;52.028;5.670;2022-09-01T06:50:39;9.93;;;1.35;;
27558;SDS011;15002;52.028;5.670;2022-09-01T06:53:06;2.58;;;1.08;;
27558;SDS011;15002;52.028;5.670;2022-09-01T06:55:36;8.05;;;1.42;;
27558;SDS011;15002;52.028;5.670;2022-09-01T06:58:05;4.72;;;1.40;;
27558;SDS011;15002;52.028;5.670;2022-09-01T07:00:34;4.25;;;1.33;;
27558;SDS011;15002;52.028;5.670;2022-09-01T07:03:04;3.60;;;2.15;;
27558;SDS011;15002;52.028;5.670;2022-09-01T07:05:36;5.28;;;1.55;;
27558;SDS011;15002;52.028;5.670;2022-09-01T07:08:03;6.50;;;1.40;;
27558;SDS011;15002;52.028;5.670;2022-09-01T07:10:39;10.93;;;1.40;;
27558;SDS011;15002;52.028;5.670;2022-09-01T07:13:09;2.90;;;1.08;;
27558;SDS011;15002;52.028;5.670;2022-09-01T07:15:40;5.65;;;1.05;;
27558;SDS011;15002;52.028;5.670;2022-09-01T07:18:07;5.78;;;1.20;;
27558;SDS011;15002;52.028;5.670;2022-09-01T07:20:34;3.38;;;0.93;;
27558;SDS011;15002;52.028;5.670;2022-09-01T07:23:03;4.20;;;1.10;;
27558;SDS011;15002;52.028;5.670;2022-09-01T07:25:30;3.85;;;0.90;;
27558;SDS011;15002;52.028;5.670;2022-09-01T07:27:58;5.82;;;0.90;;
27558;SDS011;15002;52.028;5.670;2022-09-01T07:30:25;2.28;;;1.02;;
27558;SDS011;15002;52.028;5.670;2022-09-01T07:32:51;2.13;;;1.13;;
27558;SDS011;15002;52.028;5.670;2022-09-01T07:35:18;7.43;;;1.13;;
27558;SDS011;15002;52.028;5.670;2022-09-01T07:37:46;2.75;;;1.00;;
27558;SDS011;15002;52.028;5.670;2022-09-01T07:40:13;3.22;;;1.10;;
27558;SDS011;15002;52.028;5.670;2022-09-01T07:42:45;1.67;;;1.10;;
27558;SDS011;15002;52.028;5.670;2022-09-01T07:45:13;2.80;;;0.68;;
27558;SDS011;15002;52.028;5.670;2022-09-01T07:47:41;1.92;;;0.73;;
27558;SDS011;15002;52.028;5.670;2022-09-01T07:50:09;3.60;;;0.98;;
27558;SDS011;15002;52.028;5.670;2022-09-01T07:52:37;1.42;;;0.90;;
27558;SDS011;15002;52.028;5.670;2022-09-01T07:55:13;2.08;;;0.85;;
27558;SDS011;15002;52.028;5.670;2022-09-01T07:57:41;1.33;;;0.70;;
27558;SDS011;15002;52.028;5.670;2022-09-01T08:00:10;5.50;;;0.95;;
27558;SDS011;15002;52.028;5.670;2022-09-01T08:02:38;3.55;;;1.02;;
27558;SDS011;15002;52.028;5.670;2022-09-01T08:05:05;5.43;;;0.90;;
27558;SDS011;15002;52.028;5.670;2022-09-01T08:07:33;2.47;;;1.25;;
27558;SDS011;15002;52.028;5.670;2022-09-01T08:09:59;1.80;;;0.90;;
27558;SDS011;15002;52.028;5.670;2022-09-01T08:12:24;8.93;;;1.85;;
27558;SDS011;15002;52.028;5.670;2022-09-01T08:14:50;7.35;;;1.85;;
27558;SDS011;15002;52.028;5.670;2022-09-01T08:17:17;2.90;;;0.90;;
27558;SDS011;15002;52.028;5.670;2022-09-01T08:19:44;5.60;;;1.50;;
27558;SDS011;15002;52.028;5.670;2022-09-01T08:22:11;4.32;;;1.02;;
27558;SDS011;15002;52.028;5.670;2022-09-01T08:24:37;8.45;;;1.13;;
27558;SDS011;15002;52.028;5.670;2022-09-01T08:27:02;2.60;;;1.00;;
27558;SDS011;15002;52.028;5.670;2022-09-01T08:29:28;13.13;;;1.23;;
27558;SDS011;15002;52.028;5.670;2022-09-01T08:31:54;2.42;;;0.90;;
27558;SDS011;15002;52.028;5.670;2022-09-01T08:34:23;2.45;;;0.80;;
27558;SDS011;15002;52.028;5.670;2022-09-01T08:36:49;6.03;;;0.80;;
27558;SDS011;15002;52.028;5.670;2022-09-01T08:39:15;1.52;;;0.77;;
27558;SDS011;15002;52.028;5.670;2022-09-01T08:41:42;5.32;;;0.70;;
27558;SDS011;15002;52.028;5.670;2022-09-01T08:47:04;2.78;;;0.95;;
27558;SDS011;15002;52.028;5.670;2022-09-01T08:49:32;8.10;;;0.95;;
27558;SDS011;15002;52.028;5.670;2022-09-01T08:54:53;4.72;;;1.00;;
27558;SDS011;15002;52.028;5.670;2022-09-01T08:57:23;6.28;;;1.00;;
27558;SDS011;15002;52.028;5.670;2022-09-01T08:59:55;1.92;;;0.80;;
27558;SDS011;15002;52.028;5.670;2022-09-01T09:02:26;3.42;;;0.98;;
27558;SDS011;15002;52.028;5.670;2022-09-01T09:05:06;2.45;;;0.90;;
27558;SDS011;15002;52.028;5.670;2022-09-01T09:07:57;4.53;;;0.90;;
27558;SDS011;15002;52.028;5.670;2022-09-01T09:10:57;3.08;;;0.85;;
27558;SDS011;15002;52.028;5.670;2022-09-01T09:21:58;4.50;;;1.00;;
27558;SDS011;15002;52.028;5.670;2022-09-01T09:27:40;3.83;;;1.30;;
27558;SDS011;15002;52.028;5.670;2022-09-01T09:30:08;5.70;;;1.42;;
27558;SDS011;15002;52.028;5.670;2022-09-01T09:32:48;8.15;;;1.40;;
27558;SDS011;15002;52.028;5.670;2022-09-01T09:35:29;6.18;;;1.10;;
27558;SDS011;15002;52.028;5.670;2022-09-01T09:43:36;5.80;;;1.00;;
27558;SDS011;15002;52.028;5.670;2022-09-01T09:46:26;2.25;;;0.70;;
27558;SDS011;15002;52.028;5.670;2022-09-01T09:52:29;4.28;;;0.70;;
27558;SDS011;15002;52.028;5.670;2022-09-01T09:54:33;4.15;;;0.80;;
27558;SDS011;15002;52.028;5.670;2022-09-01T09:57:21;6.90;;;1.30;;
27558;SDS011;15002;52.028;5.670;2022-09-01T09:59:47;3.55;;;0.60;;
27558;SDS011;15002;52.028;5.670;2022-09-01T10:04:57;8.88;;;0.90;;
27558;SDS011;15002;52.028;5.670;2022-09-01T10:07:42;4.95;;;0.80;;
27558;SDS011;15002;52.028;5.670;2022-09-01T10:12:54;7.50;;;0.85;;
27558;SDS011;15002;52.028;5.670;2022-09-01T10:15:24;1.95;;;0.80;;
27558;SDS011;15002;52.028;5.670;2022-09-01T10:17:53;5.78;;;1.33;;
27558;SDS011;15002;52.028;5.670;2022-09-01T10:20:24;6.40;;;1.00;;
27558;SDS011;15002;52.028;5.670;2022-09-01T10:22:51;3.88;;;0.80;;
27558;SDS011;15002;52.028;5.670;2022-09-01T10:25:35;8.35;;;1.00;;
27558;SDS011;15002;52.028;5.670;2022-09-01T10:28:10;2.20;;;0.95;;
27558;SDS011;15002;52.028;5.670;2022-09-01T10:30:41;4.18;;;0.90;;
27558;SDS011;15002;52.028;5.670;2022-09-01T10:33:10;4.45;;;0.70;;
27558;SDS011;15002;52.028;5.670;2022-09-01T10:35:41;3.67;;;0.90;;
27558;SDS011;15002;52.028;5.670;2022-09-01T10:38:13;3.13;;;1.13;;
27558;SDS011;15002;52.028;5.670;2022-09-01T10:40:42;0.73;;;0.55;;
27558;SDS011;15002;52.028;5.670;2022-09-01T10:45:52;1.40;;;0.70;;
27558;SDS011;15002;52.028;5.670;2022-09-01T10:50:44;4.75;;;0.65;;
27558;SDS011;15002;52.028;5.670;2022-09-01T10:56:00;2.80;;;0.80;;
27558;SDS011;15002;52.028;5.670;2022-09-01T10:59:04;1.17;;;0.60;;
27558;SDS011;15002;52.028;5.670;2022-09-01T11:04:19;1.02;;;0.60;;
27558;SDS011;15002;52.028;5.670;2022-09-01T11:12:09;2.97;;;0.70;;
27558;SDS011;15002;52.028;5.670;2022-09-01T11:17:22;3.22;;;1.02;;
27558;SDS011;15002;52.028;5.670;2022-09-01T11:20:05;6.60;;;0.90;;
27558;SDS011;15002;52.028;5.670;2022-09-01T11:28:42;5.55;;;0.90;;
27558;SDS011;15002;52.028;5.670;2022-09-01T11:30:59;0.80;;;0.63;;
27558;SDS011;15002;52.028;5.670;2022-09-01T11:36:35;8.38;;;1.13;;
27558;SDS011;15002;52.028;5.670;2022-09-01T11:44:44;1.75;;;0.80;;
27558;SDS011;15002;52.028;5.670;2022-09-01T11:47:31;1.42;;;0.80;;
27558;SDS011;15002;52.028;5.670;2022-09-01T11:50:06;1.02;;;0.70;;
27558;SDS011;15002;52.028;5.670;2022-09-01T11:52:42;4.43;;;1.27;;
27558;SDS011;15002;52.028;5.670;2022-09-01T11:55:28;3.90;;;0.60;;
27558;SDS011;15002;52.028;5.670;2022-09-01T11:57:57;5.78;;;0.90;;
27558;SDS011;15002;52.028;5.670;2022-09-01T12:00:33;4.00;;;1.05;;
27558;SDS011;15002;52.028;5.670;2022-09-01T12:03:26;2.47;;;1.10;;
27558;SDS011;15002;52.028;5.670;2022-09-01T12:06:03;1.77;;;0.80;;
27558;SDS011;15002;52.028;5.670;2022-09-01T12:08:35;1.50;;;0.70;;
27558;SDS011;15002;52.028;5.670;2022-09-01T12:11:10;3.50;;;0.88;;
27558;SDS011;15002;52.028;5.670;2022-09-01T12:13:53;5.95;;;1.02;;
27558;SDS011;15002;52.028;5.670;2022-09-01T12:18:51;1.70;;;0.80;;
27558;SDS011;15002;52.028;5.670;2022-09-01T12:21:22;2.40;;;0.95;;
27558;SDS011;15002;52.028;5.670;2022-09-01T12:26:44;2.53;;;0.98;;
27558;SDS011;15002;52.028;5.670;2022-09-01T12:29:12;3.28;;;0.90;;
27558;SDS011;15002;52.028;5.670;2022-09-01T12:31:42;2.25;;;1.00;;
27558;SDS011;15002;52.028;5.670;2022-09-01T12:39:50;2.55;;;0.70;;
27558;SDS011;15002;52.028;5.670;2022-09-01T12:50:00;4.85;;;1.20;;
27558;SDS011;15002;52.028;5.670;2022-09-01T12:52:52;3.40;;;0.82;;
27558;SDS011;15002;52.028;5.670;2022-09-01T12:55:26;1.73;;;1.00;;
27558;SDS011;15002;52.028;5.670;2022-09-01T12:57:55;2.08;;;0.80;;
27558;SDS011;15002;52.028;5.670;2022-09-01T13:00:29;5.75;;;1.08;;
27558;SDS011;15002;52.028;5.670;2022-09-01T13:05:28;5.55;;;1.02;;
27558;SDS011;15002;52.028;5.670;2022-09-01T13:07:58;5.83;;;0.90;;
27558;SDS011;15002;52.028;5.670;2022-09-01T13:10:37;5.18;;;0.85;;
27558;SDS011;15002;52.028;5.670;2022-09-01T13:13:09;2.17;;;0.65;;
27558;SDS011;15002;52.028;5.670;2022-09-01T13:15:36;2.85;;;0.98;;
27558;SDS011;15002;52.028;5.670;2022-09-01T13:18:04;4.82;;;1.00;;
27558;SDS011;15002;52.028;5.670;2022-09-01T13:20:30;4.05;;;1.15;;
27558;SDS011;15002;52.028;5.670;2022-09-01T13:22:55;1.42;;;0.90;;
27558;SDS011;15002;52.028;5.670;2022-09-01T13:25:22;1.73;;;0.90;;
27558;SDS011;15002;52.028;5.670;2022-09-01T13:27:48;3.40;;;1.45;;
27558;SDS011;15002;52.028;5.670;2022-09-01T13:30:23;4.38;;;1.40;;
27558;SDS011;15002;52.028;5.670;2022-09-01T13:32:52;3.50;;;0.93;;
27558;SDS011;15002;52.028;5.670;2022-09-01T13:35:19;2.17;;;0.90;;
27558;SDS011;15002;52.028;5.670;2022-09-01T13:37:46;2.83;;;1.02;;
27558;SDS011;15002;52.028;5.670;2022-09-01T13:40:13;3.80;;;1.02;;
27558;SDS011;15002;52.028;5.670;2022-09-01T13:42:50;3.30;;;0.95;;
27558;SDS011;15002;52.028;5.670;2022-09-01T13:45:17;4.53;;;0.80;;
27558;SDS011;15002;52.028;5.670;2022-09-01T13:47:45;1.77;;;1.20;;
27558;SDS011;15002;52.028;5.670;2022-09-01T13:50:13;3.20;;;1.15;;
27558;SDS011;15002;52.028;5.670;2022-09-01T13:52:43;5.78;;;0.80;;
27558;SDS011;15002;52.028;5.670;2022-09-01T13:55:15;11.45;;;1.40;;
27558;SDS011;15002;52.028;5.670;2022-09-01T13:57:47;2.22;;;1.00;;
27558;SDS011;15002;52.028;5.670;2022-09-01T14:00:14;3.50;;;1.00;;
27558;SDS011;15002;52.028;5.670;2022-09-01T14:02:44;1.80;;;0.95;;
27558;SDS011;15002;52.028;5.670;2022-09-01T14:05:13;2.70;;;0.90;;
27558;SDS011;15002;52.028;5.670;2022-09-01T14:07:40;3.70;;;0.98;;
27558;SDS011;15002;52.028;5.670;2022-09-01T14:10:06;1.60;;;0.90;;
27558;SDS011;15002;52.028;5.670;2022-09-01T14:12:32;4.93;;;1.10;;
27558;SDS011;15002;52.028;5.670;2022-09-01T14:14:59;1.77;;;0.80;;
27558;SDS011;15002;52.028;5.670;2022-09-01T14:17:24;4.13;;;1.05;;
27558;SDS011;15002;52.028;5.670;2022-09-01T14:19:50;3.38;;;0.75;;
27558;SDS011;15002;52.028;5.670;2022-09-01T14:22:17;1.35;;;0.80;;
27558;SDS011;15002;52.028;5.670;2022-09-01T14:24:43;1.67;;;0.75;;
27558;SDS011;15002;52.028;5.670;2022-09-01T14:27:09;1.80;;;0.80;;
27558;SDS011;15002;52.028;5.670;2022-09-01T14:29:35;4.53;;;0.70;;
27558;SDS011;15002;52.028;5.670;2022-09-01T14:32:01;2.38;;;0.90;;
27558;SDS011;15002;52.028;5.670;2022-09-01T14:34:27;2.22;;;0.88;;
27558;SDS011;15002;52.028;5.670;2022-09-01T14:36:54;1.05;;;0.70;;
27558;SDS011;15002;52.028;5.670;2022-09-01T14:39:22;1.95;;;0.90;;
27558;SDS011;15002;52.028;5.670;2022-09-01T14:41:48;3.05;;;0.80;;
27558;SDS011;15002;52.028;5.670;2022-09-01T14:44:13;2.67;;;0.80;;
27558;SDS011;15002;52.028;5.670;2022-09-01T14:46:39;1.58;;;0.85;;
27558;SDS011;15002;52.028;5.670;2022-09-01T14:49:05;2.65;;;1.15;;
27558;SDS011;15002;52.028;5.670;2022-09-01T14:51:31;4.63;;;0.93;;
27558;SDS011;15002;52.028;5.670;2022-09-01T14:53:58;1.25;;;0.90;;
27558;SDS011;15002;52.028;5.670;2022-09-01T14:56:24;1.02;;;0.80;;
27558;SDS011;15002;52.028;5.670;2022-09-01T14:58:51;4.50;;;0.93;;
27558;SDS011;15002;52.028;5.670;2022-09-01T15:01:22;4.63;;;0.90;;
27558;SDS011;15002;52.028;5.670;2022-09-01T15:03:49;3.30;;;0.93;;
27558;SDS011;15002;52.028;5.670;2022-09-01T15:06:16;4.07;;;1.27;;
27558;SDS011;15002;52.028;5.670;2022-09-01T15:08:44;4.82;;;1.08;;
27558;SDS011;15002;52.028;5.670;2022-09-01T15:11:11;4.72;;;1.20;;
27558;SDS011;15002;52.028;5.670;2022-09-01T15:13:41;6.80;;;1.00;;
27558;SDS011;15002;52.028;5.670;2022-09-01T15:16:13;2.67;;;0.80;;
27558;SDS011;15002;52.028;5.670;2022-09-01T15:21:05;1.25;;;1.00;;
27558;SDS011;15002;52.028;5.670;2022-09-01T15:23:31;1.58;;;0.70;;
27558;SDS011;15002;52.028;5.670;2022-09-01T15:25:57;2.40;;;0.80;;
27558;SDS011;15002;52.028;5.670;2022-09-01T15:28:23;5.28;;;1.17;;
27558;SDS011;15002;52.028;5.670;2022-09-01T15:30:50;1.48;;;1.15;;
27558;SDS011;15002;52.028;5.670;2022-09-01T15:33:17;5.13;;;1.00;;
27558;SDS011;15002;52.028;5.670;2022-09-01T15:35:44;2.42;;;0.80;;
27558;SDS011;15002;52.028;5.670;2022-09-01T15:38:11;3.10;;;1.10;;
27558;SDS011;15002;52.028;5.670;2022-09-01T15:40:38;2.80;;;1.10;;
27558;SDS011;15002;52.028;5.670;2022-09-01T15:43:05;5.90;;;1.73;;
27558;SDS011;15002;52.028;5.670;2022-09-01T15:45:31;2.97;;;1.15;;
27558;SDS011;15002;52.028;5.670;2022-09-01T15:47:57;4.82;;;1.10;;
27558;SDS011;15002;52.028;5.670;2022-09-01T15:50:24;2.08;;;0.82;;
27558;SDS011;15002;52.028;5.670;2022-09-01T15:52:55;6.40;;;2.15;;
27558;SDS011;15002;52.028;5.670;2022-09-01T15:55:45;4.53;;;1.20;;
27558;SDS011;15002;52.028;5.670;2022-09-01T15:58:11;2.33;;;1.33;;
27558;SDS011;15002;52.028;5.670;2022-09-01T16:00:39;3.40;;;1.10;;
27558;SDS011;15002;52.028;5.670;2022-09-01T16:03:05;4.78;;;1.10;;
27558;SDS011;15002;52.028;5.670;2022-09-01T16:05:33;2.78;;;1.10;;
27558;SDS011;15002;52.028;5.670;2022-09-01T16:08:01;4.00;;;1.00;;
27558;SDS011;15002;52.028;5.670;2022-09-01T16:10:28;3.63;;;1.30;;
27558;SDS011;15002;52.028;5.670;2022-09-01T16:12:56;1.55;;;1.10;;
27558;SDS011;15002;52.028;5.670;2022-09-01T16:15:23;4.32;;;1.08;;
27558;SDS011;15002;52.028;5.670;2022-09-01T16:23:50;1.10;;;1.00;;
27558;SDS011;15002;52.028;5.670;2022-09-01T16:26:17;1.90;;;1.67;;
27558;SDS011;15002;52.028;5.670;2022-09-01T16:28:54;4.40;;;1.55;;
27558;SDS011;15002;52.028;5.670;2022-09-01T16:31:23;1.83;;;1.10;;
27558;SDS011;15002;52.028;5.670;2022-09-01T16:33:52;1.17;;;1.07;;
27558;SDS011;15002;52.028;5.670;2022-09-01T16:39:14;3.92;;;1.40;;
27558;SDS011;15002;52.028;5.670;2022-09-01T16:44:38;3.17;;;1.40;;